createdAt,value
2018-05-04T00:01:12.778Z,64.56
2018-05-04T00:03:40.899Z,64.81
2018-05-04T00:06:09.163Z,65.07
2018-05-04T00:08:37.280Z,65.02
2018-05-04T00:11:05.378Z,65.08
2018-05-04T00:13:33.505Z,65.22
2018-05-04T00:16:01.639Z,65.20
2018-05-04T00:18:29.767Z,64.96
2018-05-04T00:20:57.880Z,64.73
2018-05-04T00:23:26.021Z,64.70
2018-05-04T00:25:54.154Z,64.83
2018-05-04T00:28:22.262Z,64.80
2018-05-04T00:30:50.389Z,64.96
2018-05-04T00:33:18.537Z,65.68
2018-05-04T00:35:46.646Z,66.12
2018-05-04T00:38:14.769Z,66.35
2018-05-04T00:40:42.908Z,66.49
2018-05-04T00:43:11.022Z,65.67
2018-05-04T00:45:39.145Z,66.40
2018-05-04T00:48:07.279Z,66.50
2018-05-04T00:50:35.417Z,66.63
2018-05-04T00:53:03.559Z,66.87
2018-05-04T00:55:31.677Z,66.95
2018-05-04T00:57:59.790Z,66.85
2018-05-04T01:00:27.891Z,66.73
2018-05-04T01:02:56.011Z,66.35
2018-05-04T01:05:24.345Z,66.83
2018-05-04T01:07:52.487Z,66.67
2018-05-04T01:10:20.604Z,66.56
2018-05-04T01:12:48.717Z,66.73
2018-05-04T01:15:16.841Z,66.75
2018-05-04T01:17:44.954Z,66.82
2018-05-04T01:20:13.092Z,66.17
2018-05-04T01:22:41.190Z,66.46
2018-05-04T01:25:09.309Z,66.65
2018-05-04T01:27:37.473Z,66.72
2018-05-04T01:30:05.595Z,66.10
2018-05-04T01:32:33.719Z,66.51
2018-05-04T01:35:01.854Z,66.88
2018-05-04T01:37:29.969Z,66.66
2018-05-04T01:39:58.095Z,67.02
2018-05-04T01:42:26.225Z,66.93
2018-05-04T01:44:54.359Z,66.93
2018-05-04T01:47:22.477Z,67.46
2018-05-04T01:49:50.599Z,66.77
2018-05-04T01:52:18.707Z,66.82
2018-05-04T01:54:46.837Z,66.82
2018-05-04T01:57:14.966Z,66.79
2018-05-04T01:59:43.092Z,67.12
2018-05-04T02:02:11.216Z,67.01
2018-05-04T02:04:39.359Z,67.15
2018-05-04T02:07:07.459Z,67.53
2018-05-04T02:09:35.566Z,66.87
2018-05-04T02:12:03.674Z,66.70
2018-05-04T02:14:31.823Z,66.98
2018-05-04T02:16:59.941Z,67.23
2018-05-04T02:19:28.051Z,67.00
2018-05-04T02:21:56.181Z,67.05
2018-05-04T02:24:24.298Z,67.62
2018-05-04T02:26:52.420Z,67.65
2018-05-04T02:29:20.545Z,67.58
2018-05-04T02:31:48.736Z,67.91
2018-05-04T02:34:16.861Z,67.56
2018-05-04T02:36:45.035Z,68.11
2018-05-04T02:39:13.157Z,67.66
2018-05-04T02:41:41.288Z,67.89
2018-05-04T02:44:09.432Z,67.82
2018-05-04T02:46:37.545Z,67.53
2018-05-04T02:49:05.659Z,67.53
2018-05-04T02:51:33.789Z,67.98
2018-05-04T02:54:01.909Z,67.81
2018-05-04T02:56:30.015Z,68.20
2018-05-04T02:58:58.147Z,68.65
2018-05-04T03:01:26.265Z,69.02
2018-05-04T03:03:54.397Z,69.12
2018-05-04T03:06:22.499Z,69.01
2018-05-04T03:08:50.638Z,69.11
2018-05-04T03:11:18.758Z,69.49
2018-05-04T03:13:46.859Z,69.58
2018-05-04T03:16:14.978Z,68.95
2018-05-04T03:18:43.121Z,68.79
2018-05-04T03:21:11.241Z,69.04
2018-05-04T03:23:39.339Z,69.04
2018-05-04T03:26:07.501Z,69.92
2018-05-04T03:28:35.634Z,69.93
2018-05-04T03:31:03.768Z,69.55
2018-05-04T03:33:31.899Z,69.01
2018-05-04T03:36:00.039Z,68.86
2018-05-04T03:38:28.136Z,69.69
2018-05-04T03:40:56.325Z,69.76
2018-05-04T03:43:24.441Z,69.60
2018-05-04T03:45:52.565Z,69.80
2018-05-04T03:48:21.521Z,69.59
2018-05-04T03:50:49.700Z,69.85
2018-05-04T03:53:17.821Z,69.29
2018-05-04T03:55:46.196Z,69.49
2018-05-04T03:58:26.000Z,69.88
2018-05-04T04:01:06.099Z,70.15
2018-05-04T04:03:46.014Z,69.96
2018-05-04T04:06:14.130Z,70.38
2018-05-04T04:08:42.272Z,70.09
2018-05-04T04:11:10.404Z,69.90
2018-05-04T04:13:38.534Z,70.21
2018-05-04T04:16:06.672Z,70.58
2018-05-04T04:18:34.829Z,71.01
2018-05-04T04:21:02.952Z,71.10
2018-05-04T04:23:31.385Z,71.19
2018-05-04T04:25:59.531Z,71.11
2018-05-04T04:28:27.683Z,71.25
2018-05-04T04:30:55.801Z,71.41
2018-05-04T04:33:23.910Z,71.33
2018-05-04T04:35:52.153Z,71.25
2018-05-04T04:38:20.367Z,71.60
2018-05-04T04:40:48.493Z,71.64
2018-05-04T04:43:16.615Z,71.78
2018-05-04T04:45:44.741Z,72.03
2018-05-04T04:48:12.861Z,71.83
2018-05-04T04:50:41.019Z,71.46
2018-05-04T04:53:09.129Z,71.87
2018-05-04T04:55:37.247Z,71.41
2018-05-04T04:58:05.407Z,71.38
2018-05-04T05:00:33.937Z,71.80
2018-05-04T05:03:05.763Z,71.73
2018-05-04T05:05:33.890Z,71.81
2018-05-04T05:08:02.014Z,71.90
2018-05-04T05:10:30.136Z,72.20
2018-05-04T05:12:58.504Z,71.29
2018-05-04T05:15:26.647Z,70.98
2018-05-04T05:17:54.765Z,71.01
2018-05-04T05:20:22.904Z,71.30
2018-05-04T05:22:51.047Z,70.91
2018-05-04T05:25:19.191Z,71.17
2018-05-04T05:27:47.319Z,71.07
2018-05-04T05:30:15.445Z,71.05
2018-05-04T05:32:43.559Z,73.60
2018-05-04T05:35:11.694Z,70.33
2018-05-04T05:37:39.815Z,69.68
2018-05-04T05:40:07.945Z,70.14
2018-05-04T05:42:36.057Z,70.37
2018-05-04T05:45:04.189Z,70.33
2018-05-04T05:47:32.314Z,70.16
2018-05-04T05:50:00.461Z,70.04
2018-05-04T05:52:28.571Z,70.14
2018-05-04T05:54:56.699Z,70.42
2018-05-04T05:57:24.818Z,70.17
2018-05-04T05:59:52.946Z,70.25
2018-05-04T06:02:21.139Z,69.64
2018-05-04T06:04:49.359Z,68.74
2018-05-04T06:07:17.575Z,69.08
2018-05-04T06:09:45.742Z,68.91
2018-05-04T06:12:13.903Z,68.72
2018-05-04T06:14:42.031Z,68.11
2018-05-04T06:17:10.152Z,68.09
2018-05-04T06:19:38.317Z,67.82
2018-05-04T06:22:06.432Z,68.28
2018-05-04T06:24:34.543Z,68.27
2018-05-04T06:27:02.692Z,68.02
2018-05-04T06:29:30.801Z,67.77
2018-05-04T06:31:58.930Z,67.07
2018-05-04T06:34:27.051Z,66.56
2018-05-04T06:36:55.237Z,66.49
2018-05-04T06:39:23.367Z,65.70
2018-05-04T06:41:51.497Z,64.94
2018-05-04T06:44:19.615Z,64.90
2018-05-04T06:46:47.727Z,64.13
2018-05-04T06:49:16.014Z,63.81
2018-05-04T06:51:44.200Z,62.96
2018-05-04T06:54:12.373Z,62.63
2018-05-04T06:56:40.576Z,62.93
2018-05-04T06:59:08.757Z,62.32
2018-05-04T07:01:36.885Z,61.67
2018-05-04T07:04:05.029Z,61.52
2018-05-04T07:06:33.163Z,61.57
2018-05-04T07:09:01.281Z,61.76
2018-05-04T07:11:29.613Z,61.97
2018-05-04T07:13:57.759Z,62.37
2018-05-04T07:16:25.884Z,61.59
2018-05-04T07:18:54.023Z,61.85
2018-05-04T07:21:22.148Z,62.21
2018-05-04T07:23:50.272Z,60.77
2018-05-04T07:26:18.433Z,60.83
2018-05-04T07:28:46.536Z,59.99
2018-05-04T07:31:14.650Z,59.39
2018-05-04T07:33:42.777Z,58.89
2018-05-04T07:36:10.905Z,58.97
2018-05-04T07:38:39.073Z,58.77
2018-05-04T07:41:07.492Z,56.83
2018-05-04T07:43:35.596Z,56.22
2018-05-04T07:46:03.710Z,56.35
2018-05-04T07:48:31.869Z,56.24
2018-05-04T07:50:59.964Z,55.24
2018-05-04T07:53:28.076Z,55.31
2018-05-04T07:55:56.208Z,55.06
2018-05-04T07:58:24.328Z,55.04
2018-05-04T08:00:52.457Z,54.25
2018-05-04T08:03:20.607Z,55.11
2018-05-04T08:05:48.716Z,53.23
2018-05-04T08:08:16.818Z,53.22
2018-05-04T08:10:44.982Z,53.63
2018-05-04T08:13:13.094Z,53.48
2018-05-04T08:15:41.257Z,53.58
2018-05-04T08:18:09.393Z,54.13
2018-05-04T08:20:37.513Z,53.69
2018-05-04T08:23:05.629Z,53.11
2018-05-04T08:25:33.782Z,52.77
2018-05-04T08:28:01.910Z,51.41
2018-05-04T08:30:30.025Z,51.97
2018-05-04T08:32:58.162Z,51.74
2018-05-04T08:35:26.295Z,51.85
2018-05-04T08:37:54.413Z,50.82
2018-05-04T08:40:22.549Z,51.49
2018-05-04T08:42:50.745Z,51.12
2018-05-04T08:45:18.805Z,49.97
2018-05-04T08:47:46.930Z,48.98
2018-05-04T08:50:15.053Z,48.52
2018-05-04T08:52:43.147Z,48.19
2018-05-04T08:55:15.435Z,48.70
2018-05-04T08:57:43.547Z,49.44
2018-05-04T09:00:11.649Z,47.65
2018-05-04T09:02:39.787Z,46.11
2018-05-04T09:05:08.159Z,45.78
2018-05-04T09:07:36.164Z,45.11
2018-05-04T09:10:04.282Z,45.18
2018-05-04T09:12:32.396Z,45.81
2018-05-04T09:15:00.544Z,46.43
2018-05-04T09:17:28.719Z,45.31
2018-05-04T09:19:56.833Z,45.09
2018-05-04T09:22:24.934Z,44.64
2018-05-04T09:24:53.054Z,44.36
2018-05-04T09:27:21.157Z,44.14
2018-05-04T09:29:49.281Z,44.58
2018-05-04T09:32:17.413Z,43.41
2018-05-04T09:34:45.533Z,45.35
2018-05-04T09:37:13.685Z,42.52
2018-05-04T09:39:45.427Z,42.26
2018-05-04T09:42:13.538Z,42.02
2018-05-04T09:44:41.639Z,40.87
2018-05-04T09:47:09.769Z,40.10
2018-05-04T09:49:37.909Z,39.32
2018-05-04T09:52:06.039Z,39.75
2018-05-04T09:54:34.155Z,40.79
2018-05-04T09:57:02.254Z,40.09
2018-05-04T09:59:30.376Z,40.07
2018-05-04T10:01:58.558Z,39.89
2018-05-04T10:04:26.700Z,39.31
2018-05-04T10:06:54.782Z,39.44
2018-05-04T10:09:22.921Z,40.16
2018-05-04T10:11:51.033Z,39.73
2018-05-04T10:14:19.127Z,39.93
2018-05-04T10:16:47.282Z,39.75
2018-05-04T10:19:15.391Z,39.10
2018-05-04T10:21:43.495Z,39.49
2018-05-04T10:24:11.816Z,39.53
2018-05-04T10:26:39.943Z,39.95
2018-05-04T10:29:08.063Z,39.86
2018-05-04T10:31:36.162Z,38.68
2018-05-04T10:34:04.304Z,38.80
2018-05-04T10:36:32.402Z,39.25
2018-05-04T10:39:00.644Z,38.71
2018-05-04T10:41:28.677Z,39.09
2018-05-04T10:43:56.779Z,39.02
2018-05-04T10:46:24.932Z,38.73
2018-05-04T10:48:53.043Z,39.02
2018-05-04T10:51:21.175Z,39.49
2018-05-04T10:53:49.298Z,38.64
2018-05-04T10:56:17.413Z,38.86
2018-05-04T10:58:45.548Z,38.57
2018-05-04T11:01:13.674Z,37.90
2018-05-04T11:03:41.820Z,37.63
2018-05-04T11:06:09.954Z,37.90
2018-05-04T11:08:38.090Z,37.67
2018-05-04T11:11:06.216Z,38.21
2018-05-04T11:13:34.333Z,37.63
2018-05-04T11:16:02.454Z,38.74
2018-05-04T11:18:30.592Z,37.93
2018-05-04T11:20:58.696Z,37.76
2018-05-04T11:23:26.839Z,36.16
2018-05-04T11:25:54.973Z,37.88
2018-05-04T11:28:23.085Z,38.18
2018-05-04T11:30:51.214Z,37.73
2018-05-04T11:33:19.298Z,37.73
2018-05-04T11:35:47.404Z,38.31
2018-05-04T11:38:15.525Z,37.85
2018-05-04T11:40:43.664Z,36.60
2018-05-04T11:43:11.833Z,36.22
2018-05-04T11:45:39.962Z,36.54
2018-05-04T11:48:08.101Z,36.90
2018-05-04T11:50:36.226Z,38.54
2018-05-04T11:53:04.353Z,37.47
2018-05-04T11:55:32.483Z,36.72
2018-05-04T11:58:00.612Z,37.83
2018-05-04T12:00:28.734Z,37.17
2018-05-04T12:02:56.862Z,36.87
2018-05-04T12:05:25.033Z,36.60
2018-05-04T12:07:53.192Z,37.22
2018-05-04T12:10:21.305Z,37.00
2018-05-04T12:12:49.417Z,36.50
2018-05-04T12:15:17.548Z,36.48
2018-05-04T12:17:45.700Z,37.49
2018-05-04T12:20:13.826Z,36.64
2018-05-04T12:22:41.972Z,35.48
2018-05-04T12:25:10.115Z,36.14
2018-05-04T12:27:38.273Z,35.73
2018-05-04T12:30:06.456Z,36.37
2018-05-04T12:32:34.591Z,37.04
2018-05-04T12:35:02.850Z,36.39
2018-05-04T12:37:30.986Z,35.51
2018-05-04T12:39:59.090Z,36.34
2018-05-04T12:42:27.232Z,34.29
2018-05-04T12:44:55.360Z,35.54
2018-05-04T12:47:23.493Z,35.01
2018-05-04T12:49:51.613Z,35.52
2018-05-04T12:52:19.738Z,35.72
2018-05-04T12:54:47.871Z,36.37
2018-05-04T12:57:15.989Z,36.17
2018-05-04T12:59:44.113Z,36.26
2018-05-04T13:02:12.247Z,35.99
2018-05-04T13:04:40.370Z,35.32
2018-05-04T13:07:08.494Z,35.39
2018-05-04T13:09:36.624Z,35.70
2018-05-04T13:12:04.764Z,36.23
2018-05-04T13:14:32.871Z,34.94
2018-05-04T13:17:00.993Z,35.38
2018-05-04T13:19:29.109Z,35.60
2018-05-04T13:21:57.231Z,35.09
2018-05-04T13:24:27.703Z,34.80
2018-05-04T13:26:55.828Z,34.38
2018-05-04T13:29:24.012Z,34.83
2018-05-04T13:31:52.074Z,34.06
2018-05-04T13:34:20.203Z,34.83
2018-05-04T13:36:48.333Z,35.31
2018-05-04T13:39:16.434Z,34.23
2018-05-04T13:41:44.536Z,34.78
2018-05-04T13:44:12.665Z,34.61
2018-05-04T13:46:40.769Z,34.69
2018-05-04T13:49:08.991Z,34.42
2018-05-04T13:51:37.212Z,33.75
2018-05-04T13:54:05.257Z,35.20
2018-05-04T13:56:33.378Z,34.39
2018-05-04T13:59:01.540Z,35.21
2018-05-04T14:01:29.676Z,35.34
2018-05-04T14:03:57.895Z,35.80
2018-05-04T14:06:26.312Z,34.93
2018-05-04T14:08:54.440Z,34.75
2018-05-04T14:11:22.567Z,34.88
2018-05-04T14:13:50.686Z,35.17
2018-05-04T14:16:18.932Z,35.51
2018-05-04T14:18:47.142Z,34.83
2018-05-04T14:21:15.379Z,34.66
2018-05-04T14:23:43.480Z,33.35
2018-05-04T14:26:11.603Z,34.67
2018-05-04T14:28:39.759Z,33.71
2018-05-04T14:31:07.969Z,33.20
2018-05-04T14:33:36.073Z,34.27
2018-05-04T14:36:04.421Z,34.30
2018-05-04T14:38:32.552Z,33.84
2018-05-04T14:41:00.650Z,34.51
2018-05-04T14:43:28.842Z,35.19
2018-05-04T14:46:00.146Z,33.75
2018-05-04T14:48:28.320Z,33.73
2018-05-04T14:51:00.264Z,34.00
2018-05-04T14:53:28.448Z,32.51
2018-05-04T14:55:56.595Z,34.39
2018-05-04T14:58:24.945Z,33.70
2018-05-04T15:00:53.050Z,34.18
2018-05-04T15:03:21.160Z,34.04
2018-05-04T15:05:49.310Z,34.30
2018-05-04T15:08:17.420Z,34.89
2018-05-04T15:10:45.582Z,35.13
2018-05-04T15:13:13.717Z,34.86
2018-05-04T15:15:41.852Z,35.04
2018-05-04T15:18:09.981Z,34.53
2018-05-04T15:20:38.309Z,34.79
2018-05-04T15:23:06.438Z,33.84
2018-05-04T15:25:34.557Z,34.29
2018-05-04T15:28:02.696Z,33.95
2018-05-04T15:30:30.794Z,34.46
2018-05-04T15:32:58.899Z,34.69
2018-05-04T15:35:27.007Z,35.32
2018-05-04T15:37:55.124Z,35.58
2018-05-04T15:40:23.311Z,35.77
2018-05-04T15:42:51.401Z,35.65
2018-05-04T15:45:19.535Z,35.45
2018-05-04T15:47:47.645Z,35.18
2018-05-04T15:50:21.632Z,34.92
2018-05-04T15:52:49.730Z,34.46
2018-05-04T15:55:17.853Z,34.26
2018-05-04T15:57:46.061Z,35.00
2018-05-04T16:00:14.183Z,35.61
2018-05-04T16:02:42.323Z,35.43
2018-05-04T16:05:10.474Z,35.86
2018-05-04T16:07:38.580Z,35.68
2018-05-04T16:10:06.697Z,36.32
2018-05-04T16:12:34.824Z,36.06
2018-05-04T16:15:02.967Z,36.85
2018-05-04T16:17:31.170Z,36.17
2018-05-04T16:19:59.294Z,36.40
2018-05-04T16:22:27.457Z,36.09
2018-05-04T16:24:55.568Z,36.63
2018-05-04T16:27:23.695Z,37.13
2018-05-04T16:29:51.807Z,37.02
2018-05-04T16:32:19.925Z,37.30
2018-05-04T16:34:48.076Z,37.60
2018-05-04T16:37:16.195Z,37.32
2018-05-04T16:39:44.336Z,37.62
2018-05-04T16:42:12.443Z,37.50
2018-05-04T16:44:40.582Z,38.07
2018-05-04T16:47:14.241Z,38.39
2018-05-04T16:49:43.262Z,37.70
2018-05-04T16:52:11.379Z,37.21
2018-05-04T16:54:39.526Z,37.18
2018-05-04T16:57:07.655Z,37.46
2018-05-04T16:59:35.788Z,38.11
2018-05-04T17:02:03.940Z,37.62
2018-05-04T17:04:32.065Z,38.47
2018-05-04T17:07:00.183Z,37.94
2018-05-04T17:09:28.324Z,37.53
2018-05-04T17:11:56.449Z,37.43
2018-05-04T17:14:24.565Z,37.27
2018-05-04T17:16:52.749Z,37.83
2018-05-04T17:19:21.330Z,38.09
2018-05-04T17:21:49.435Z,38.00
2018-05-04T17:24:17.613Z,38.09
2018-05-04T17:26:45.825Z,38.30
2018-05-04T17:29:14.056Z,38.78
2018-05-04T17:31:42.333Z,38.30
2018-05-04T17:34:10.482Z,38.09
2018-05-04T17:36:38.649Z,38.39
2018-05-04T17:39:07.019Z,39.37
2018-05-04T17:41:35.256Z,39.91
2018-05-04T17:44:03.394Z,39.12
2018-05-04T17:46:31.510Z,38.60
2018-05-04T17:48:59.637Z,38.52
2018-05-04T17:51:27.739Z,39.14
2018-05-04T17:53:55.893Z,38.61
2018-05-04T17:56:24.011Z,38.33
2018-05-04T17:58:52.130Z,38.17
2018-05-04T18:01:20.728Z,38.36
2018-05-04T18:03:48.851Z,38.50
2018-05-04T18:06:16.950Z,38.54
2018-05-04T18:08:45.097Z,39.20
2018-05-04T18:11:13.219Z,38.94
2018-05-04T18:13:41.347Z,39.53
2018-05-04T18:16:09.485Z,39.57
2018-05-04T18:18:37.601Z,40.12
2018-05-04T18:21:05.728Z,40.11
2018-05-04T18:23:33.955Z,40.09
2018-05-04T18:26:02.059Z,40.03
2018-05-04T18:28:30.197Z,40.13
2018-05-04T18:30:58.323Z,40.30
2018-05-04T18:33:26.441Z,40.77
2018-05-04T18:35:54.538Z,40.76
2018-05-04T18:38:22.708Z,41.13
2018-05-04T18:40:50.782Z,41.78
2018-05-04T18:43:18.905Z,41.91
2018-05-04T18:45:47.046Z,42.15
2018-05-04T18:48:15.248Z,42.58
2018-05-04T18:50:43.280Z,42.83
2018-05-04T18:53:11.421Z,42.44
2018-05-04T18:55:39.566Z,43.03
2018-05-04T18:58:07.678Z,43.42
2018-05-04T19:00:35.814Z,43.40
2018-05-04T19:03:09.657Z,43.27
2018-05-04T19:05:37.771Z,43.15
2018-05-04T19:08:09.403Z,43.23
2018-05-04T19:10:37.434Z,43.51
2018-05-04T19:13:05.572Z,44.32
2018-05-04T19:15:33.689Z,44.18
2018-05-04T19:18:01.802Z,43.98
2018-05-04T19:20:30.001Z,43.83
2018-05-04T19:22:58.079Z,43.61
2018-05-04T19:25:26.212Z,44.42
2018-05-04T19:27:54.361Z,43.50
2018-05-04T19:30:22.458Z,44.49
2018-05-04T19:32:50.569Z,44.25
2018-05-04T19:35:18.705Z,44.51
2018-05-04T19:37:46.806Z,44.35
2018-05-04T19:40:14.920Z,44.21
2018-05-04T19:42:43.042Z,44.28
2018-05-04T19:45:11.152Z,44.49
2018-05-04T19:47:39.296Z,44.71
2018-05-04T19:50:07.413Z,44.91
2018-05-04T19:52:35.574Z,45.56
2018-05-04T19:55:03.652Z,45.67
2018-05-04T19:57:31.820Z,45.38
2018-05-04T19:59:59.919Z,45.33
2018-05-04T20:02:28.014Z,45.28
2018-05-04T20:04:56.145Z,46.05
2018-05-04T20:07:24.266Z,45.45
2018-05-04T20:09:52.377Z,45.59
2018-05-04T20:12:20.501Z,46.72
2018-05-04T20:14:48.621Z,47.00
2018-05-04T20:17:16.791Z,46.42
2018-05-04T20:19:44.928Z,45.78
2018-05-04T20:22:13.041Z,46.67
2018-05-04T20:24:41.180Z,46.37
2018-05-04T20:27:09.297Z,46.79
2018-05-04T20:29:37.432Z,47.67
2018-05-04T20:32:05.559Z,48.07
2018-05-04T20:34:33.699Z,48.40
2018-05-04T20:37:01.837Z,48.54
2018-05-04T20:39:29.953Z,48.87
2018-05-04T20:41:58.108Z,48.60
2018-05-04T20:44:26.248Z,48.90
2018-05-04T20:46:54.360Z,49.18
2018-05-04T20:49:22.474Z,49.22
2018-05-04T20:51:50.601Z,49.44
2018-05-04T20:54:18.740Z,49.92
2018-05-04T20:56:46.869Z,49.35
2018-05-04T20:59:14.988Z,49.79
2018-05-04T21:01:43.233Z,49.96
2018-05-04T21:04:11.361Z,49.74
2018-05-04T21:06:39.460Z,49.74
2018-05-04T21:09:11.408Z,49.48
2018-05-04T21:11:39.530Z,49.47
2018-05-04T21:14:07.663Z,50.07
2018-05-04T21:16:35.758Z,49.66
2018-05-04T21:19:03.907Z,49.00
2018-05-04T21:21:32.004Z,50.01
2018-05-04T21:24:00.117Z,49.86
2018-05-04T21:26:32.019Z,51.06
2018-05-04T21:29:00.118Z,49.56
2018-05-04T21:31:28.399Z,49.99
2018-05-04T21:33:57.649Z,49.91
2018-05-04T21:36:25.765Z,49.86
2018-05-04T21:38:53.940Z,50.03
2018-05-04T21:41:22.191Z,49.92
2018-05-04T21:43:50.343Z,49.67
2018-05-04T21:46:18.483Z,49.77
2018-05-04T21:48:46.751Z,49.57
2018-05-04T21:51:14.880Z,49.79
2018-05-04T21:53:43.021Z,49.92
2018-05-04T21:56:11.147Z,50.13
2018-05-04T21:58:39.339Z,50.56
2018-05-04T22:01:07.501Z,50.47
2018-05-04T22:03:36.573Z,50.54
2018-05-04T22:06:04.697Z,51.05
2018-05-04T22:08:32.832Z,51.50
2018-05-04T22:11:00.987Z,51.47
2018-05-04T22:13:29.110Z,51.93
2018-05-04T22:15:57.344Z,51.82
2018-05-04T22:18:25.498Z,51.14
2018-05-04T22:20:53.612Z,50.87
2018-05-04T22:23:21.725Z,51.06
2018-05-04T22:25:49.868Z,50.83
2018-05-04T22:28:17.975Z,51.23
2018-05-04T22:30:46.093Z,51.10
2018-05-04T22:33:14.207Z,50.96
2018-05-04T22:35:42.329Z,51.70
2018-05-04T22:38:10.449Z,51.38
2018-05-04T22:40:38.584Z,51.84
2018-05-04T22:43:10.311Z,52.06
2018-05-04T22:45:38.478Z,51.62
2018-05-04T22:48:06.645Z,51.99
2018-05-04T22:50:34.783Z,51.09
2018-05-04T22:53:02.927Z,51.37
2018-05-04T22:55:31.072Z,51.28
2018-05-04T22:57:59.199Z,51.46
2018-05-04T23:00:27.326Z,51.41
2018-05-04T23:02:55.446Z,51.33
2018-05-04T23:05:23.566Z,51.61
2018-05-04T23:07:51.709Z,51.89
2018-05-04T23:10:19.872Z,51.88
2018-05-04T23:12:47.992Z,52.02
2018-05-04T23:15:16.178Z,51.40
2018-05-04T23:17:44.304Z,51.82
2018-05-04T23:20:12.411Z,52.26
2018-05-04T23:22:40.576Z,52.95
2018-05-04T23:25:08.723Z,52.87
2018-05-04T23:27:36.851Z,52.51
2018-05-04T23:30:04.977Z,52.68
2018-05-04T23:32:33.109Z,53.38
2018-05-04T23:35:01.243Z,53.33
2018-05-04T23:37:29.351Z,52.86
2018-05-04T23:39:57.507Z,53.12
2018-05-04T23:42:25.625Z,52.40
2018-05-04T23:44:53.748Z,52.66
2018-05-04T23:47:21.874Z,52.86
2018-05-04T23:49:50.004Z,52.42
2018-05-04T23:52:18.121Z,52.53
2018-05-04T23:54:46.260Z,53.25
2018-05-04T23:57:14.399Z,53.09
2018-05-04T23:59:42.515Z,53.19
